createdAt,value
2024-03-24T00:08:22.553Z,8.40
2024-03-24T00:18:29.273Z,15.40
2024-03-24T00:28:35.936Z,13.90
2024-03-24T00:38:43.308Z,9.90
2024-03-24T00:48:49.621Z,12.80
2024-03-24T00:58:56.387Z,14.30
2024-03-24T01:09:03.030Z,11.70
2024-03-24T01:19:09.523Z,12.90
2024-03-24T01:29:16.166Z,14.20
2024-03-24T01:39:22.684Z,14.40
2024-03-24T01:49:30.011Z,7.30
2024-03-24T01:59:36.460Z,7.80
2024-03-24T02:09:46.530Z,18.20
2024-03-24T02:19:52.997Z,18.30
2024-03-24T02:29:59.553Z,15.40
2024-03-24T02:40:06.666Z,9.60
2024-03-24T02:50:13.837Z,11.50
2024-03-24T03:00:19.518Z,13.20
2024-03-24T03:10:25.959Z,18.00
2024-03-24T03:20:32.311Z,22.30
2024-03-24T03:30:39.197Z,18.00
2024-03-24T03:40:45.975Z,22.80
2024-03-24T03:50:51.910Z,13.90
2024-03-24T04:00:58.699Z,14.00
2024-03-24T04:11:06.761Z,19.10
2024-03-24T04:21:13.121Z,19.70
2024-03-24T04:31:19.715Z,24.80
2024-03-24T04:41:25.834Z,14.30
2024-03-24T04:51:33.007Z,17.20
2024-03-24T05:01:39.475Z,17.30
2024-03-24T05:11:47.544Z,18.80
2024-03-24T05:21:54.232Z,21.10
2024-03-24T05:32:01.823Z,20.10
2024-03-24T05:42:08.595Z,17.70
2024-03-24T05:52:15.152Z,22.80
2024-03-24T06:02:22.213Z,40.20
2024-03-24T06:12:28.477Z,24.50
2024-03-24T06:22:34.936Z,19.90
2024-03-24T06:32:42.138Z,15.90
2024-03-24T06:42:50.238Z,13.30
2024-03-24T06:52:57.722Z,14.60
2024-03-24T07:03:04.513Z,11.60
2024-03-24T07:13:11.639Z,9.40
2024-03-24T07:23:18.344Z,8.90
2024-03-24T07:33:25.169Z,7.40
2024-03-24T07:43:32.289Z,11.30
2024-03-24T07:53:38.710Z,7.30
2024-03-24T08:03:45.270Z,21.90
2024-03-24T08:13:52.290Z,9.90
2024-03-24T08:23:58.750Z,11.00
2024-03-24T08:34:05.633Z,9.70
2024-03-24T08:44:13.712Z,7.90
2024-03-24T08:54:19.470Z,8.60
2024-03-24T09:04:25.941Z,7.60
2024-03-24T09:14:32.855Z,6.20
2024-03-24T09:24:39.325Z,25.50
2024-03-24T09:34:47.896Z,9.20
2024-03-24T09:44:57.473Z,39.70
2024-03-24T09:55:04.239Z,14.60
2024-03-24T10:05:07.691Z,8.00
2024-03-24T10:15:24.801Z,21.70
2024-03-24T10:25:32.978Z,9.00
2024-03-24T10:35:39.571Z,8.10
2024-03-24T10:45:46.434Z,5.90
2024-03-24T10:55:51.748Z,9.90
2024-03-24T11:06:00.261Z,6.80
2024-03-24T11:16:06.541Z,12.10
2024-03-24T11:26:19.829Z,7.90
2024-03-24T11:36:27.895Z,6.50
2024-03-24T11:46:37.384Z,13.50
2024-03-24T11:56:44.748Z,26.70
2024-03-24T12:06:51.928Z,15.30
2024-03-24T12:17:03.737Z,9.50
2024-03-24T12:27:10.444Z,9.20
2024-03-24T12:37:17.105Z,11.30
2024-03-24T12:47:25.044Z,8.50
2024-03-24T12:57:33.262Z,8.60
2024-03-24T13:07:40.741Z,6.00
2024-03-24T13:17:49.626Z,17.80
2024-03-24T13:28:00.831Z,6.70
2024-03-24T13:38:06.666Z,10.10
2024-03-24T13:48:12.783Z,13.30
2024-03-24T13:58:19.748Z,6.40
2024-03-24T14:08:25.900Z,10.40
2024-03-24T14:18:30.316Z,4.40
2024-03-24T14:28:36.284Z,4.10
2024-03-24T14:38:47.176Z,28.00
2024-03-24T14:48:53.698Z,10.20
2024-03-24T14:58:59.832Z,9.10
2024-03-24T15:09:06.402Z,7.10
2024-03-24T15:19:13.008Z,11.10
2024-03-24T15:29:19.484Z,4.90
2024-03-24T15:39:25.200Z,3.10
2024-03-24T15:49:31.966Z,5.20
2024-03-24T15:59:40.311Z,6.20
2024-03-24T16:09:56.157Z,12.00
2024-03-24T16:20:13.779Z,8.70
2024-03-24T16:30:20.395Z,7.50
2024-03-24T16:40:26.247Z,6.80
2024-03-24T16:50:32.851Z,11.10
2024-03-24T17:00:37.646Z,33.30
2024-03-24T17:10:45.976Z,44.20
2024-03-24T17:30:57.352Z,66.00
2024-03-24T17:41:05.641Z,59.60
2024-03-24T17:51:12.159Z,59.20
2024-03-24T18:01:18.664Z,39.90
2024-03-24T18:11:25.836Z,38.50
2024-03-24T18:21:30.781Z,25.90
2024-03-24T18:31:39.164Z,28.90
2024-03-24T18:41:45.973Z,34.50
2024-03-24T18:51:52.621Z,63.90
2024-03-24T19:01:59.853Z,100.10
2024-03-24T19:12:07.037Z,78.40
2024-03-24T19:22:13.959Z,86.70
2024-03-24T19:32:20.012Z,82.40
2024-03-24T19:42:30.269Z,50.30
2024-03-24T19:52:36.984Z,47.60
2024-03-24T20:02:42.824Z,49.00
2024-03-24T20:12:49.302Z,45.20
2024-03-24T20:22:55.931Z,42.70
2024-03-24T20:33:02.567Z,39.40
2024-03-24T20:43:07.538Z,42.20
2024-03-24T20:53:14.469Z,29.40
2024-03-24T21:03:23.193Z,25.50
2024-03-24T21:13:30.362Z,32.30
2024-03-24T21:23:36.768Z,36.80
2024-03-24T21:33:43.507Z,42.00
2024-03-24T21:43:50.217Z,24.30
2024-03-24T21:53:56.800Z,21.90
2024-03-24T22:04:03.427Z,12.90
2024-03-24T22:14:10.733Z,12.30
2024-03-24T22:24:17.287Z,22.80
2024-03-24T22:34:23.976Z,18.20
2024-03-24T22:44:30.360Z,24.50
2024-03-24T22:54:36.926Z,17.80
2024-03-24T23:04:44.768Z,12.90
2024-03-24T23:14:51.919Z,18.60
2024-03-24T23:25:00.233Z,22.70
2024-03-24T23:35:10.051Z,18.70
2024-03-24T23:45:16.819Z,17.90
2024-03-24T23:55:23.209Z,12.80
